createdAt,value
2018-04-08T00:00:59.771Z,19.30
2018-04-08T00:03:27.317Z,20.00
2018-04-08T00:05:54.822Z,25.50
2018-04-08T00:08:22.277Z,30.10
2018-04-08T00:10:49.733Z,23.30
2018-04-08T00:13:17.200Z,26.53
2018-04-08T00:15:44.665Z,22.77
2018-04-08T00:18:12.891Z,23.77
2018-04-08T00:20:40.360Z,24.27
2018-04-08T00:23:07.838Z,28.83
2018-04-08T00:25:35.293Z,23.50
2018-04-08T00:28:02.763Z,27.43
2018-04-08T00:30:30.986Z,21.67
2018-04-08T00:32:58.445Z,19.80
2018-04-08T00:35:25.926Z,24.47
2018-04-08T00:37:53.390Z,22.90
2018-04-08T00:40:20.853Z,30.63
2018-04-08T00:42:48.315Z,27.27
2018-04-08T00:45:15.777Z,23.53
2018-04-08T00:47:44.016Z,25.33
2018-04-08T00:50:12.493Z,30.20
2018-04-08T00:52:39.963Z,26.40
2018-04-08T00:55:07.430Z,24.40
2018-04-08T00:57:34.928Z,28.40
2018-04-08T01:00:02.387Z,30.37
2018-04-08T01:02:29.858Z,21.33
2018-04-08T01:04:57.321Z,26.00
2018-04-08T01:07:24.778Z,29.73
2018-04-08T01:09:52.238Z,28.40
2018-04-08T01:12:20.718Z,24.87
2018-04-08T01:14:48.172Z,26.80
2018-04-08T01:17:15.650Z,27.63
2018-04-08T01:19:44.052Z,21.97
2018-04-08T01:22:11.522Z,26.13
2018-04-08T01:24:39.752Z,27.53
2018-04-08T01:27:07.231Z,25.80
2018-04-08T01:29:35.190Z,27.63
2018-04-08T01:32:02.676Z,29.27
2018-04-08T01:34:30.145Z,33.33
2018-04-08T01:36:58.357Z,25.50
2018-04-08T01:39:25.825Z,24.83
2018-04-08T01:41:53.295Z,32.43
2018-04-08T01:44:20.762Z,28.37
2018-04-08T01:46:48.222Z,32.87
2018-04-08T01:49:16.045Z,27.83
2018-04-08T01:51:43.537Z,30.47
2018-04-08T01:54:10.961Z,27.37
2018-04-08T01:56:38.434Z,29.20
2018-04-08T01:59:05.889Z,28.30
2018-04-08T02:01:33.349Z,29.17
2018-04-08T02:04:00.825Z,27.17
2018-04-08T02:06:28.290Z,28.43
2018-04-08T02:08:56.541Z,27.17
2018-04-08T02:11:24.009Z,29.13
2018-04-08T02:13:51.471Z,39.53
2018-04-08T02:16:19.030Z,29.57
2018-04-08T02:18:46.503Z,30.10
2018-04-08T02:21:14.762Z,27.27
2018-04-08T02:23:42.317Z,37.97
2018-04-08T02:26:09.786Z,24.70
2018-04-08T02:28:37.250Z,32.77
2018-04-08T02:31:05.482Z,27.17
2018-04-08T02:33:32.984Z,28.80
2018-04-08T02:36:00.451Z,37.67
2018-04-08T02:38:28.699Z,29.07
2018-04-08T02:40:56.154Z,30.07
2018-04-08T02:43:23.624Z,35.77
2018-04-08T02:45:51.082Z,31.87
2018-04-08T02:48:19.318Z,35.97
2018-04-08T02:50:46.783Z,32.07
2018-04-08T02:53:14.246Z,44.80
2018-04-08T02:55:41.722Z,32.77
2018-04-08T02:58:09.190Z,42.27
2018-04-08T03:00:37.422Z,36.47
2018-04-08T03:03:04.909Z,34.00
2018-04-08T03:05:33.182Z,33.57
2018-04-08T03:08:01.404Z,40.43
2018-04-08T03:10:28.853Z,39.10
2018-04-08T03:12:57.090Z,36.27
2018-04-08T03:15:24.556Z,37.13
2018-04-08T03:17:52.010Z,40.47
2018-04-08T03:20:20.259Z,49.37
2018-04-08T03:22:47.712Z,46.27
2018-04-08T03:25:15.170Z,51.43
2018-04-08T03:27:42.634Z,56.47
2018-04-08T03:30:10.107Z,45.13
2018-04-08T03:32:37.558Z,43.93
2018-04-08T03:35:05.025Z,47.47
2018-04-08T03:37:32.482Z,49.93
2018-04-08T03:39:59.938Z,45.83
2018-04-08T03:42:28.203Z,49.03
2018-04-08T03:44:55.666Z,53.50
2018-04-08T03:47:23.122Z,47.47
2018-04-08T03:49:50.605Z,54.40
2018-04-08T03:52:18.075Z,50.43
2018-04-08T03:54:45.536Z,54.60
2018-04-08T03:57:13.018Z,44.70
2018-04-08T03:59:40.490Z,51.20
2018-04-08T04:02:07.941Z,46.97
2018-04-08T04:04:35.937Z,47.53
2018-04-08T04:07:03.393Z,54.93
2018-04-08T04:09:31.638Z,52.53
2018-04-08T04:11:59.119Z,48.30
2018-04-08T04:14:26.583Z,48.67
2018-04-08T04:16:54.047Z,59.67
2018-04-08T04:19:33.389Z,52.47
2018-04-08T04:22:13.606Z,58.07
2018-04-08T04:25:01.861Z,53.40
2018-04-08T04:27:29.325Z,50.90
2018-04-08T04:29:56.785Z,56.70
2018-04-08T04:32:24.395Z,47.87
2018-04-08T04:34:51.862Z,58.67
2018-04-08T04:37:19.326Z,52.47
2018-04-08T04:39:46.790Z,62.03
2018-04-08T04:42:14.257Z,53.30
2018-04-08T04:44:43.222Z,53.73
2018-04-08T04:47:10.685Z,54.20
2018-04-08T04:49:38.148Z,57.77
2018-04-08T04:52:05.638Z,65.80
2018-04-08T04:54:34.023Z,71.63
2018-04-08T04:57:01.520Z,56.63
2018-04-08T04:59:28.985Z,55.53
2018-04-08T05:01:56.457Z,63.53
2018-04-08T05:04:23.939Z,56.57
2018-04-08T05:06:51.385Z,63.00
2018-04-08T05:09:18.865Z,70.93
2018-04-08T05:11:47.098Z,57.50
2018-04-08T05:14:15.082Z,64.37
2018-04-08T05:16:43.319Z,58.73
2018-04-08T05:19:10.780Z,67.63
2018-04-08T05:21:38.240Z,60.70
2018-04-08T05:24:05.701Z,56.37
2018-04-08T05:26:33.162Z,65.27
2018-04-08T05:29:00.632Z,60.13
2018-04-08T05:31:28.109Z,56.97
2018-04-08T05:33:56.282Z,59.50
2018-04-08T05:36:23.731Z,51.43
2018-04-08T05:38:51.209Z,60.67
2018-04-08T05:41:18.661Z,55.27
2018-04-08T05:43:46.904Z,63.67
2018-04-08T05:46:14.381Z,55.57
2018-04-08T05:48:41.836Z,64.10
2018-04-08T05:51:09.294Z,54.07
2018-04-08T05:53:36.853Z,58.17
2018-04-08T05:56:04.314Z,53.23
2018-04-08T05:58:31.773Z,55.47
2018-04-08T06:00:59.250Z,55.10
2018-04-08T06:03:27.494Z,51.17
2018-04-08T06:05:55.794Z,58.90
2018-04-08T06:08:24.038Z,57.80
2018-04-08T06:10:52.310Z,56.00
2018-04-08T06:13:19.773Z,61.20
2018-04-08T06:15:47.241Z,45.77
2018-04-08T06:18:14.809Z,48.40
2018-04-08T06:20:42.254Z,59.87
2018-04-08T06:23:09.725Z,51.77
2018-04-08T06:25:37.952Z,45.63
2018-04-08T06:28:05.414Z,55.73
2018-04-08T06:30:32.894Z,52.10
2018-04-08T06:33:00.362Z,42.63
2018-04-08T06:35:27.815Z,39.50
2018-04-08T06:37:55.289Z,45.70
2018-04-08T06:40:23.602Z,45.33
2018-04-08T06:42:51.415Z,44.03
2018-04-08T06:45:18.987Z,48.13
2018-04-08T06:47:47.212Z,48.30
2018-04-08T06:50:14.677Z,42.80
2018-04-08T06:52:42.167Z,47.87
2018-04-08T06:55:09.627Z,40.30
2018-04-08T06:57:37.086Z,44.17
2018-04-08T07:00:05.354Z,47.10
2018-04-08T07:02:33.721Z,45.93
2018-04-08T07:05:01.198Z,33.70
2018-04-08T07:07:28.658Z,45.93
2018-04-08T07:09:56.887Z,41.43
2018-04-08T07:12:24.346Z,33.77
2018-04-08T07:14:52.682Z,41.70
2018-04-08T07:17:20.906Z,30.97
2018-04-08T07:19:48.366Z,46.83
2018-04-08T07:22:15.873Z,32.00
2018-04-08T07:24:43.385Z,32.23
2018-04-08T07:27:10.790Z,38.37
2018-04-08T07:29:38.282Z,38.50
2018-04-08T07:32:05.852Z,34.53
2018-04-08T07:34:33.306Z,44.83
2018-04-08T07:37:00.791Z,44.63
2018-04-08T07:39:28.249Z,29.00
2018-04-08T07:41:55.718Z,34.63
2018-04-08T07:44:23.953Z,33.30
2018-04-08T07:46:51.414Z,33.93
2018-04-08T07:49:18.878Z,36.17
2018-04-08T07:51:46.359Z,27.60
2018-04-08T07:54:14.606Z,30.77
2018-04-08T07:56:42.075Z,32.73
2018-04-08T07:59:09.607Z,26.00
2018-04-08T08:01:37.793Z,34.17
2018-04-08T08:04:05.241Z,31.73
2018-04-08T08:06:32.718Z,29.93
2018-04-08T08:09:00.171Z,38.90
2018-04-08T08:11:28.439Z,30.53
2018-04-08T08:13:55.905Z,34.47
2018-04-08T08:16:23.362Z,27.43
2018-04-08T08:18:50.826Z,30.23
2018-04-08T08:21:18.298Z,26.80
2018-04-08T08:23:46.530Z,32.37
2018-04-08T08:26:14.009Z,27.60
2018-04-08T08:28:41.498Z,26.27
2018-04-08T08:31:09.110Z,26.70
2018-04-08T08:33:36.567Z,29.07
2018-04-08T08:36:04.037Z,28.80
2018-04-08T08:38:31.504Z,21.60
2018-04-08T08:40:58.968Z,23.70
2018-04-08T08:43:26.510Z,26.67
2018-04-08T08:45:55.231Z,30.30
2018-04-08T08:48:23.466Z,24.83
2018-04-08T08:50:50.962Z,22.83
2018-04-08T08:53:18.430Z,25.30
2018-04-08T08:55:45.907Z,29.33
2018-04-08T08:58:13.386Z,27.57
2018-04-08T09:00:40.841Z,24.57
2018-04-08T09:03:08.302Z,23.00
2018-04-08T09:05:36.710Z,22.80
2018-04-08T09:08:04.934Z,24.20
2018-04-08T09:10:32.397Z,27.10
2018-04-08T09:12:59.869Z,23.83
2018-04-08T09:15:27.337Z,23.00
2018-04-08T09:17:54.830Z,22.63
2018-04-08T09:20:37.958Z,20.00
2018-04-08T09:23:09.911Z,20.80
2018-04-08T09:25:38.731Z,22.53
2018-04-08T09:28:06.195Z,29.73
2018-04-08T09:30:34.209Z,19.87
2018-04-08T09:33:01.783Z,26.00
2018-04-08T09:35:29.224Z,20.87
2018-04-08T09:37:56.681Z,24.97
2018-04-08T09:40:24.148Z,22.93
2018-04-08T09:42:52.379Z,19.90
2018-04-08T09:45:19.858Z,22.07
2018-04-08T09:47:48.110Z,20.73
2018-04-08T09:50:16.660Z,23.43
2018-04-08T09:52:44.159Z,22.17
2018-04-08T09:55:11.630Z,16.80
2018-04-08T09:57:39.099Z,23.57
2018-04-08T10:00:06.604Z,18.00
2018-04-08T10:02:36.698Z,18.70
2018-04-08T10:05:04.157Z,18.53
2018-04-08T10:07:31.643Z,19.10
2018-04-08T10:09:59.102Z,24.03
2018-04-08T10:12:26.953Z,24.97
2018-04-08T10:14:54.419Z,21.90
2018-04-08T10:17:21.882Z,18.13
2018-04-08T10:19:49.365Z,16.57
2018-04-08T10:22:16.834Z,19.63
2018-04-08T10:24:44.308Z,19.27
2018-04-08T10:27:12.561Z,18.00
2018-04-08T10:29:40.030Z,22.90
2018-04-08T10:32:07.503Z,21.37
2018-04-08T10:34:35.738Z,23.10
2018-04-08T10:37:03.212Z,19.00
2018-04-08T10:39:30.671Z,20.80
2018-04-08T10:41:58.144Z,20.47
2018-04-08T10:44:26.385Z,22.23
2018-04-08T10:46:53.906Z,21.60
2018-04-08T10:49:21.376Z,26.20
2018-04-08T10:51:48.891Z,27.50
2018-04-08T10:54:16.325Z,21.53
2018-04-08T10:56:43.790Z,22.27
2018-04-08T10:59:12.021Z,22.10
2018-04-08T11:01:39.484Z,24.23
2018-04-08T11:04:06.963Z,20.03
2018-04-08T11:06:34.421Z,24.63
2018-04-08T11:09:01.890Z,23.80
2018-04-08T11:11:29.367Z,29.50
2018-04-08T11:13:57.594Z,25.57
2018-04-08T11:16:25.056Z,22.43
2018-04-08T11:18:52.527Z,22.83
2018-04-08T11:21:19.999Z,25.33
2018-04-08T11:23:47.463Z,20.57
2018-04-08T11:26:15.722Z,21.70
2018-04-08T11:28:43.182Z,25.37
2018-04-08T11:31:10.639Z,27.83
2018-04-08T11:33:38.106Z,26.97
2018-04-08T11:36:06.343Z,30.03
2018-04-08T11:38:33.825Z,23.17
2018-04-08T11:41:01.291Z,23.37
2018-04-08T11:43:29.525Z,21.47
2018-04-08T11:45:56.981Z,28.90
2018-04-08T11:48:24.572Z,26.10
2018-04-08T11:50:52.034Z,20.00
2018-04-08T11:53:19.501Z,27.47
2018-04-08T11:55:48.738Z,21.50
2018-04-08T11:58:17.006Z,29.47
2018-04-08T12:00:44.465Z,29.07
2018-04-08T12:03:11.939Z,27.00
2018-04-08T12:05:39.397Z,22.30
2018-04-08T12:08:06.858Z,30.70
2018-04-08T12:10:34.337Z,29.20
2018-04-08T12:13:01.802Z,20.30
2018-04-08T12:15:29.253Z,19.97
2018-04-08T12:17:56.734Z,21.17
2018-04-08T12:20:24.205Z,25.23
2018-04-08T12:22:51.664Z,22.47
2018-04-08T12:25:19.166Z,23.13
2018-04-08T12:27:46.634Z,23.40
2018-04-08T12:30:14.934Z,25.47
2018-04-08T12:32:43.185Z,22.10
2018-04-08T12:35:10.645Z,20.07
2018-04-08T12:37:38.131Z,20.00
2018-04-08T12:40:06.367Z,19.57
2018-04-08T12:42:34.688Z,16.73
2018-04-08T12:45:02.913Z,22.03
2018-04-08T12:47:30.397Z,17.00
2018-04-08T12:49:58.625Z,23.23
2018-04-08T12:52:26.086Z,19.87
2018-04-08T12:54:54.157Z,16.90
2018-04-08T12:57:21.644Z,20.13
2018-04-08T12:59:49.074Z,25.40
2018-04-08T13:02:16.545Z,18.97
2018-04-08T13:04:44.014Z,30.20
2018-04-08T13:07:11.474Z,23.90
2018-04-08T13:09:38.947Z,16.30
2018-04-08T13:12:07.231Z,26.43
2018-04-08T13:14:35.977Z,17.67
2018-04-08T13:17:03.446Z,19.07
2018-04-08T13:19:30.910Z,26.77
2018-04-08T13:21:58.373Z,23.20
2018-04-08T13:24:25.860Z,20.30
2018-04-08T13:26:53.317Z,16.87
2018-04-08T13:29:20.779Z,20.73
2018-04-08T13:31:48.253Z,27.60
2018-04-08T13:34:15.715Z,25.17
2018-04-08T13:36:43.173Z,20.93
2018-04-08T13:39:10.648Z,19.23
2018-04-08T13:41:38.111Z,24.30
2018-04-08T13:44:05.598Z,19.67
2018-04-08T13:46:33.858Z,22.30
2018-04-08T13:49:01.328Z,21.70
2018-04-08T13:51:29.560Z,22.13
2018-04-08T13:53:57.068Z,28.67
2018-04-08T13:56:24.521Z,21.37
2018-04-08T13:58:52.751Z,27.73
2018-04-08T14:01:20.241Z,23.00
2018-04-08T14:03:48.465Z,20.80
2018-04-08T14:06:16.731Z,36.20
2018-04-08T14:08:44.202Z,39.53
2018-04-08T14:11:11.663Z,35.97
2018-04-08T14:13:39.129Z,40.23
2018-04-08T14:16:07.368Z,35.57
2018-04-08T14:18:34.823Z,35.50
2018-04-08T14:21:02.273Z,40.33
2018-04-08T14:23:29.754Z,36.90
2018-04-08T14:25:57.227Z,40.53
2018-04-08T14:28:24.682Z,39.27
2018-04-08T14:30:52.152Z,40.47
2018-04-08T14:33:19.625Z,40.57
2018-04-08T14:35:47.075Z,37.00
2018-04-08T14:38:15.220Z,34.20
2018-04-08T14:40:42.672Z,38.07
2018-04-08T14:43:10.153Z,36.23
2018-04-08T14:45:37.645Z,41.97
2018-04-08T14:48:05.867Z,41.03
2018-04-08T14:50:33.329Z,39.97
2018-04-08T14:53:00.804Z,42.53
2018-04-08T14:55:28.265Z,39.43
2018-04-08T14:57:56.498Z,39.90
2018-04-08T15:00:23.987Z,44.10
2018-04-08T15:02:51.449Z,41.87
2018-04-08T15:05:19.855Z,35.10
2018-04-08T15:07:48.102Z,33.53
2018-04-08T15:10:15.558Z,36.33
2018-04-08T15:12:43.018Z,34.50
2018-04-08T15:15:10.492Z,36.40
2018-04-08T15:17:38.716Z,38.70
2018-04-08T15:20:06.183Z,38.07
2018-04-08T15:22:34.297Z,37.23
2018-04-08T15:25:02.523Z,43.33
2018-04-08T15:27:29.981Z,38.20
2018-04-08T15:29:57.521Z,39.50
2018-04-08T15:32:25.026Z,36.93
2018-04-08T15:34:53.263Z,42.33
2018-04-08T15:37:20.730Z,40.63
2018-04-08T15:39:48.197Z,36.10
2018-04-08T15:42:15.676Z,41.00
2018-04-08T15:44:43.154Z,37.17
2018-04-08T15:47:11.378Z,37.63
2018-04-08T15:49:38.843Z,34.23
2018-04-08T15:52:06.317Z,36.80
2018-04-08T15:54:33.774Z,41.57
2018-04-08T15:57:01.234Z,34.57
2018-04-08T15:59:29.473Z,40.60
2018-04-08T16:01:56.937Z,39.13
2018-04-08T16:04:24.394Z,38.10
2018-04-08T16:06:51.890Z,33.77
2018-04-08T16:09:19.376Z,34.97
2018-04-08T16:11:47.590Z,41.13
2018-04-08T16:14:15.128Z,38.53
2018-04-08T16:16:42.605Z,34.03
2018-04-08T16:19:10.061Z,33.73
2018-04-08T16:21:37.541Z,48.37
2018-04-08T16:24:04.989Z,34.80
2018-04-08T16:26:32.455Z,35.60
2018-04-08T16:28:59.938Z,31.63
2018-04-08T16:31:27.401Z,38.13
2018-04-08T16:33:54.941Z,40.30
2018-04-08T16:36:23.173Z,33.73
2018-04-08T16:38:50.833Z,37.40
2018-04-08T16:41:18.309Z,33.73
2018-04-08T16:43:45.803Z,34.40
2018-04-08T16:46:14.034Z,35.80
2018-04-08T16:48:41.501Z,40.10
2018-04-08T16:51:08.982Z,40.20
2018-04-08T16:53:37.209Z,33.20
2018-04-08T16:56:04.853Z,33.10
2018-04-08T16:58:32.315Z,32.43
2018-04-08T17:00:59.914Z,33.83
2018-04-08T17:03:27.393Z,38.40
2018-04-08T17:05:55.647Z,35.77
2018-04-08T17:08:23.345Z,35.87
2018-04-08T17:10:50.854Z,34.13
2018-04-08T17:13:18.329Z,36.37
2018-04-08T17:15:45.826Z,36.43
2018-04-08T17:18:13.283Z,43.87
2018-04-08T17:20:40.745Z,42.40
2018-04-08T17:23:08.230Z,41.60
2018-04-08T17:25:36.478Z,36.63
2018-04-08T17:28:03.934Z,42.57
2018-04-08T17:30:31.430Z,40.07
2018-04-08T17:33:00.406Z,36.23
2018-04-08T17:35:27.877Z,37.40
2018-04-08T17:37:55.369Z,44.70
2018-04-08T17:40:23.598Z,35.23
2018-04-08T17:42:51.061Z,38.43
2018-04-08T17:45:18.556Z,47.10
2018-04-08T17:47:46.794Z,49.60
2018-04-08T17:50:14.315Z,38.80
2018-04-08T17:52:41.802Z,50.07
2018-04-08T17:55:09.275Z,46.63
2018-04-08T17:57:37.348Z,35.63
2018-04-08T18:00:04.825Z,38.47
2018-04-08T18:02:33.085Z,37.30
2018-04-08T18:05:00.551Z,39.87
2018-04-08T18:07:28.035Z,35.73
2018-04-08T18:09:56.319Z,35.03
2018-04-08T18:12:23.806Z,43.83
2018-04-08T18:14:51.313Z,31.17
2018-04-08T18:17:19.577Z,38.47
2018-04-08T18:19:47.825Z,36.03
2018-04-08T18:22:15.338Z,40.40
2018-04-08T18:24:42.818Z,33.20
2018-04-08T18:27:10.294Z,40.80
2018-04-08T18:29:37.758Z,35.30
2018-04-08T18:32:05.314Z,33.70
2018-04-08T18:34:32.794Z,43.47
2018-04-08T18:37:00.257Z,34.67
2018-04-08T18:39:27.825Z,34.63
2018-04-08T18:41:55.302Z,39.43
2018-04-08T18:44:22.769Z,46.40
2018-04-08T18:46:50.293Z,38.07
2018-04-08T18:49:19.397Z,42.17
2018-04-08T18:51:47.649Z,42.97
2018-04-08T18:54:15.122Z,45.13
2018-04-08T18:56:43.362Z,37.90
2018-04-08T18:59:11.622Z,40.10
2018-04-08T19:01:39.136Z,39.17
2018-04-08T19:04:07.431Z,40.03
2018-04-08T19:06:35.570Z,45.40
2018-04-08T19:09:03.057Z,37.60
2018-04-08T19:11:30.540Z,39.60
2018-04-08T19:13:58.001Z,43.13
2018-04-08T19:16:25.507Z,39.90
2018-04-08T19:18:53.740Z,43.83
2018-04-08T19:21:22.032Z,49.73
2018-04-08T19:23:50.521Z,47.33
2018-04-08T19:26:18.875Z,50.00
2018-04-08T19:28:46.329Z,48.40
2018-04-08T19:31:13.806Z,45.30
2018-04-08T19:33:41.458Z,46.53
2018-04-08T19:36:08.935Z,55.17
2018-04-08T19:38:36.424Z,48.90
2018-04-08T19:41:03.886Z,45.43
2018-04-08T19:43:31.376Z,48.30
2018-04-08T19:46:00.973Z,48.30
2018-04-08T19:48:28.449Z,41.00
2018-04-08T19:50:55.944Z,46.73
2018-04-08T19:53:24.169Z,65.40
2018-04-08T19:55:51.737Z,49.17
2018-04-08T19:58:19.202Z,57.37
2018-04-08T20:00:46.666Z,52.77
2018-04-08T20:03:14.505Z,52.07
2018-04-08T20:05:42.070Z,47.73
2018-04-08T20:08:09.534Z,49.53
2018-04-08T20:10:37.014Z,50.13
2018-04-08T20:13:04.542Z,50.80
2018-04-08T20:15:32.918Z,46.90
2018-04-08T20:18:00.691Z,48.73
2018-04-08T20:20:28.205Z,46.47
2018-04-08T20:22:55.777Z,51.20
2018-04-08T20:25:23.277Z,45.00
2018-04-08T20:27:50.783Z,44.87
2018-04-08T20:30:18.237Z,50.70
2018-04-08T20:32:45.709Z,58.87
2018-04-08T20:35:13.188Z,49.77
2018-04-08T20:37:40.649Z,56.50
2018-04-08T20:40:08.138Z,53.50
2018-04-08T20:42:36.364Z,51.07
2018-04-08T20:45:03.826Z,56.80
2018-04-08T20:47:31.301Z,43.33
2018-04-08T20:49:58.773Z,46.50
2018-04-08T20:52:26.233Z,53.60
2018-04-08T20:54:53.714Z,55.53
2018-04-08T20:57:21.943Z,47.77
2018-04-08T20:59:49.413Z,49.67
2018-04-08T21:02:16.890Z,52.83
2018-04-08T21:04:45.118Z,48.90
2018-04-08T21:07:12.582Z,59.97
2018-04-08T21:09:40.058Z,53.43
2018-04-08T21:12:07.528Z,56.33
2018-04-08T21:14:35.754Z,47.00
2018-04-08T21:17:03.218Z,54.23
2018-04-08T21:19:30.691Z,52.73
2018-04-08T21:21:58.159Z,47.00
2018-04-08T21:24:25.740Z,46.23
2018-04-08T21:26:53.179Z,53.77
2018-04-08T21:29:20.648Z,51.73
2018-04-08T21:31:48.890Z,49.30
2018-04-08T21:34:16.377Z,56.93
2018-04-08T21:36:43.883Z,52.53
2018-04-08T21:39:11.339Z,53.73
2018-04-08T21:41:38.895Z,41.83
2018-04-08T21:44:06.348Z,54.63
2018-04-08T21:46:33.800Z,55.60
2018-04-08T21:49:01.269Z,46.17
2018-04-08T21:51:28.756Z,51.67
2018-04-08T21:53:56.809Z,54.87
2018-04-08T21:56:24.288Z,57.23
2018-04-08T21:58:51.751Z,54.00
2018-04-08T22:01:19.215Z,66.23
2018-04-08T22:03:46.692Z,57.20
2018-04-08T22:06:15.733Z,58.67
2018-04-08T22:08:43.222Z,54.10
2018-04-08T22:11:10.689Z,59.80
2018-04-08T22:13:38.138Z,51.83
2018-04-08T22:16:05.593Z,60.40
2018-04-08T22:18:33.059Z,55.90
2018-04-08T22:21:01.299Z,55.67
2018-04-08T22:23:28.782Z,53.67
2018-04-08T22:25:56.246Z,56.27
2018-04-08T22:28:24.477Z,57.47
2018-04-08T22:30:51.945Z,52.67
2018-04-08T22:33:19.420Z,46.67
2018-04-08T22:35:46.882Z,59.07
2018-04-08T22:38:14.338Z,51.63
2018-04-08T22:40:41.814Z,68.67
2018-04-08T22:43:10.058Z,62.40
2018-04-08T22:45:37.522Z,59.37
2018-04-08T22:48:04.995Z,57.70
2018-04-08T22:50:33.233Z,63.83
2018-04-08T22:53:00.694Z,67.43
2018-04-08T22:55:28.166Z,49.43
2018-04-08T22:57:56.462Z,60.53
2018-04-08T23:00:25.494Z,61.27
2018-04-08T23:02:52.959Z,61.37
2018-04-08T23:05:20.421Z,58.83
2018-04-08T23:07:47.885Z,61.47
2018-04-08T23:10:16.274Z,63.23
2018-04-08T23:12:43.739Z,55.17
2018-04-08T23:15:11.210Z,60.07
2018-04-08T23:17:39.457Z,65.73
2018-04-08T23:20:06.920Z,69.10
2018-04-08T23:22:34.394Z,57.73
2018-04-08T23:25:01.867Z,49.60
2018-04-08T23:27:30.091Z,63.37
2018-04-08T23:29:57.562Z,60.13
2018-04-08T23:32:25.029Z,67.73
2018-04-08T23:34:52.494Z,61.47
2018-04-08T23:37:19.951Z,57.07
2018-04-08T23:39:47.426Z,53.53
2018-04-08T23:42:15.661Z,69.60
2018-04-08T23:44:43.122Z,58.83
2018-04-08T23:47:10.595Z,61.70
2018-04-08T23:49:38.055Z,59.93
2018-04-08T23:52:05.534Z,64.63
2018-04-08T23:54:33.778Z,74.23
2018-04-08T23:57:01.243Z,63.43
2018-04-08T23:59:28.801Z,62.70
